sensor_id;sensor_type;location;lat;lon;timestamp;pressure;altitude;pressure_sealevel;temperature
68588;BMP180;55560;52.174;20.996;2023-07-13T00:01:22;100121.40;;;20.00
68588;BMP180;55560;52.174;20.996;2023-07-13T00:03:51;100120.00;;;19.90
68588;BMP180;55560;52.174;20.996;2023-07-13T00:06:20;100114.80;;;19.90
68588;BMP180;55560;52.174;20.996;2023-07-13T00:08:49;100109.80;;;19.90
68588;BMP180;55560;52.174;20.996;2023-07-13T00:11:17;100106.60;;;19.82
68588;BMP180;55560;52.174;20.996;2023-07-13T00:13:45;100105.00;;;19.80
68588;BMP180;55560;52.174;20.996;2023-07-13T00:16:16;100105.40;;;19.80
68588;BMP180;55560;52.174;20.996;2023-07-13T00:18:46;100102.60;;;19.80
68588;BMP180;55560;52.174;20.996;2023-07-13T00:21:14;100101.20;;;19.80
68588;BMP180;55560;52.174;20.996;2023-07-13T00:23:44;100097.00;;;19.76
68588;BMP180;55560;52.174;20.996;2023-07-13T00:26:13;100095.00;;;19.78
68588;BMP180;55560;52.174;20.996;2023-07-13T00:28:42;100095.80;;;19.80
68588;BMP180;55560;52.174;20.996;2023-07-13T00:31:11;100097.60;;;19.80
68588;BMP180;55560;52.174;20.996;2023-07-13T00:33:43;100098.00;;;19.78
68588;BMP180;55560;52.174;20.996;2023-07-13T00:36:12;100094.80;;;19.70
68588;BMP180;55560;52.174;20.996;2023-07-13T00:38:41;100095.00;;;19.70
68588;BMP180;55560;52.174;20.996;2023-07-13T00:41:10;100094.20;;;19.70
68588;BMP180;55560;52.174;20.996;2023-07-13T00:43:40;100095.20;;;19.70
68588;BMP180;55560;52.174;20.996;2023-07-13T00:46:29;100094.40;;;19.70
68588;BMP180;55560;52.174;20.996;2023-07-13T00:49:04;100092.20;;;19.70
68588;BMP180;55560;52.174;20.996;2023-07-13T00:51:44;100086.40;;;19.70
68588;BMP180;55560;52.174;20.996;2023-07-13T00:54:19;100089.20;;;19.70
68588;BMP180;55560;52.174;20.996;2023-07-13T00:56:53;100089.80;;;19.70
68588;BMP180;55560;52.174;20.996;2023-07-13T00:59:23;100083.80;;;19.70
68588;BMP180;55560;52.174;20.996;2023-07-13T01:01:52;100085.80;;;19.70
68588;BMP180;55560;52.174;20.996;2023-07-13T01:04:25;100082.20;;;19.70
68588;BMP180;55560;52.174;20.996;2023-07-13T01:06:53;100084.60;;;19.70
68588;BMP180;55560;52.174;20.996;2023-07-13T01:09:21;100088.80;;;19.78
68588;BMP180;55560;52.174;20.996;2023-07-13T01:11:49;100096.20;;;19.80
68588;BMP180;55560;52.174;20.996;2023-07-13T01:14:17;100099.00;;;19.76
68588;BMP180;55560;52.174;20.996;2023-07-13T01:16:47;100104.80;;;19.70
68588;BMP180;55560;52.174;20.996;2023-07-13T01:19:28;100098.00;;;19.70
68588;BMP180;55560;52.174;20.996;2023-07-13T01:22:14;100102.60;;;19.70
68588;BMP180;55560;52.174;20.996;2023-07-13T01:24:46;100102.20;;;19.70
68588;BMP180;55560;52.174;20.996;2023-07-13T01:27:21;100099.40;;;19.70
68588;BMP180;55560;52.174;20.996;2023-07-13T01:29:52;100101.20;;;19.70
68588;BMP180;55560;52.174;20.996;2023-07-13T01:32:23;100104.40;;;19.68
68588;BMP180;55560;52.174;20.996;2023-07-13T01:34:55;100111.40;;;19.70
68588;BMP180;55560;52.174;20.996;2023-07-13T01:37:25;100113.00;;;19.70
68588;BMP180;55560;52.174;20.996;2023-07-13T01:39:53;100116.80;;;19.70
68588;BMP180;55560;52.174;20.996;2023-07-13T01:42:21;100118.60;;;19.70
68588;BMP180;55560;52.174;20.996;2023-07-13T01:44:49;100127.40;;;19.70
68588;BMP180;55560;52.174;20.996;2023-07-13T01:47:18;100124.40;;;19.70
68588;BMP180;55560;52.174;20.996;2023-07-13T01:49:46;100120.20;;;19.64
68588;BMP180;55560;52.174;20.996;2023-07-13T01:52:15;100119.60;;;19.60
68588;BMP180;55560;52.174;20.996;2023-07-13T01:54:43;100117.20;;;19.60
68588;BMP180;55560;52.174;20.996;2023-07-13T01:57:10;100113.60;;;19.60
68588;BMP180;55560;52.174;20.996;2023-07-13T01:59:40;100112.40;;;19.60
68588;BMP180;55560;52.174;20.996;2023-07-13T02:02:08;100110.60;;;19.60
68588;BMP180;55560;52.174;20.996;2023-07-13T02:04:36;100108.80;;;19.58
68588;BMP180;55560;52.174;20.996;2023-07-13T02:07:04;100111.80;;;19.50
68588;BMP180;55560;52.174;20.996;2023-07-13T02:09:32;100121.60;;;19.50
68588;BMP180;55560;52.174;20.996;2023-07-13T02:12:00;100124.80;;;19.50
68588;BMP180;55560;52.174;20.996;2023-07-13T02:14:31;100130.20;;;19.50
68588;BMP180;55560;52.174;20.996;2023-07-13T02:16:59;100131.00;;;19.50
68588;BMP180;55560;52.174;20.996;2023-07-13T02:19:27;100132.20;;;19.50
68588;BMP180;55560;52.174;20.996;2023-07-13T02:21:55;100135.00;;;19.50
68588;BMP180;55560;52.174;20.996;2023-07-13T02:24:23;100136.40;;;19.50
68588;BMP180;55560;52.174;20.996;2023-07-13T02:26:51;100133.60;;;19.50
68588;BMP180;55560;52.174;20.996;2023-07-13T02:29:20;100133.20;;;19.50
68588;BMP180;55560;52.174;20.996;2023-07-13T02:31:48;100136.80;;;19.50
68588;BMP180;55560;52.174;20.996;2023-07-13T02:34:15;100130.80;;;19.50
68588;BMP180;55560;52.174;20.996;2023-07-13T02:36:44;100132.20;;;19.48
68588;BMP180;55560;52.174;20.996;2023-07-13T02:39:14;100131.60;;;19.40
68588;BMP180;55560;52.174;20.996;2023-07-13T02:41:42;100128.60;;;19.40
68588;BMP180;55560;52.174;20.996;2023-07-13T02:44:13;100132.80;;;19.40
68588;BMP180;55560;52.174;20.996;2023-07-13T02:46:42;100132.00;;;19.40
68588;BMP180;55560;52.174;20.996;2023-07-13T02:49:10;100127.40;;;19.40
68588;BMP180;55560;52.174;20.996;2023-07-13T02:51:38;100123.40;;;19.40
68588;BMP180;55560;52.174;20.996;2023-07-13T02:54:06;100126.60;;;19.40
68588;BMP180;55560;52.174;20.996;2023-07-13T02:56:36;100125.20;;;19.40
68588;BMP180;55560;52.174;20.996;2023-07-13T02:59:06;100121.20;;;19.40
68588;BMP180;55560;52.174;20.996;2023-07-13T03:01:35;100124.40;;;19.40
68588;BMP180;55560;52.174;20.996;2023-07-13T03:04:04;100125.80;;;19.40
68588;BMP180;55560;52.174;20.996;2023-07-13T03:06:33;100123.80;;;19.34
68588;BMP180;55560;52.174;20.996;2023-07-13T03:09:02;100126.60;;;19.38
68588;BMP180;55560;52.174;20.996;2023-07-13T03:11:31;100129.60;;;19.30
68588;BMP180;55560;52.174;20.996;2023-07-13T03:14:26;100132.00;;;19.30
68588;BMP180;55560;52.174;20.996;2023-07-13T03:16:54;100129.00;;;19.30
68588;BMP180;55560;52.174;20.996;2023-07-13T03:19:24;100125.40;;;19.30
68588;BMP180;55560;52.174;20.996;2023-07-13T03:21:52;100124.20;;;19.32
68588;BMP180;55560;52.174;20.996;2023-07-13T03:24:21;100128.20;;;19.38
68588;BMP180;55560;52.174;20.996;2023-07-13T03:26:54;100122.00;;;19.40
68588;BMP180;55560;52.174;20.996;2023-07-13T03:29:22;100121.40;;;19.30
68588;BMP180;55560;52.174;20.996;2023-07-13T03:31:50;100119.20;;;19.30
68588;BMP180;55560;52.174;20.996;2023-07-13T03:34:18;100113.60;;;19.30
68588;BMP180;55560;52.174;20.996;2023-07-13T03:36:46;100113.80;;;19.30
68588;BMP180;55560;52.174;20.996;2023-07-13T03:39:14;100108.60;;;19.30
68588;BMP180;55560;52.174;20.996;2023-07-13T03:41:47;100106.60;;;19.30
68588;BMP180;55560;52.174;20.996;2023-07-13T03:44:17;100103.80;;;19.30
68588;BMP180;55560;52.174;20.996;2023-07-13T03:46:47;100102.80;;;19.30
68588;BMP180;55560;52.174;20.996;2023-07-13T03:49:15;100102.40;;;19.30
68588;BMP180;55560;52.174;20.996;2023-07-13T03:51:43;100101.20;;;19.30
68588;BMP180;55560;52.174;20.996;2023-07-13T03:54:11;100103.20;;;19.30
68588;BMP180;55560;52.174;20.996;2023-07-13T03:56:40;100103.40;;;19.32
68588;BMP180;55560;52.174;20.996;2023-07-13T03:59:09;100106.20;;;19.40
68588;BMP180;55560;52.174;20.996;2023-07-13T04:01:37;100107.20;;;19.40
68588;BMP180;55560;52.174;20.996;2023-07-13T04:04:06;100099.20;;;19.46
68588;BMP180;55560;52.174;20.996;2023-07-13T04:06:34;100103.20;;;19.50
68588;BMP180;55560;52.174;20.996;2023-07-13T04:09:03;100104.60;;;19.60
68588;BMP180;55560;52.174;20.996;2023-07-13T04:11:34;100108.00;;;19.60
68588;BMP180;55560;52.174;20.996;2023-07-13T04:14:04;100115.80;;;19.70
68588;BMP180;55560;52.174;20.996;2023-07-13T04:16:34;100119.40;;;19.80
68588;BMP180;55560;52.174;20.996;2023-07-13T04:19:02;100129.60;;;19.96
68588;BMP180;55560;52.174;20.996;2023-07-13T04:21:31;100128.40;;;20.10
68588;BMP180;55560;52.174;20.996;2023-07-13T04:23:59;100128.40;;;20.20
68588;BMP180;55560;52.174;20.996;2023-07-13T04:26:26;100129.40;;;20.40
68588;BMP180;55560;52.174;20.996;2023-07-13T04:28:55;100139.80;;;20.54
68588;BMP180;55560;52.174;20.996;2023-07-13T04:31:23;100144.20;;;20.70
68588;BMP180;55560;52.174;20.996;2023-07-13T04:33:51;100147.40;;;20.80
68588;BMP180;55560;52.174;20.996;2023-07-13T04:36:19;100147.20;;;20.90
68588;BMP180;55560;52.174;20.996;2023-07-13T04:38:47;100148.80;;;21.00
68588;BMP180;55560;52.174;20.996;2023-07-13T04:41:16;100150.20;;;21.02
68588;BMP180;55560;52.174;20.996;2023-07-13T04:43:44;100150.00;;;21.10
68588;BMP180;55560;52.174;20.996;2023-07-13T04:46:13;100157.20;;;21.20
68588;BMP180;55560;52.174;20.996;2023-07-13T04:48:42;100161.00;;;21.20
68588;BMP180;55560;52.174;20.996;2023-07-13T04:51:10;100164.60;;;21.30
68588;BMP180;55560;52.174;20.996;2023-07-13T04:53:38;100165.00;;;21.30
68588;BMP180;55560;52.174;20.996;2023-07-13T04:56:06;100162.60;;;21.40
68588;BMP180;55560;52.174;20.996;2023-07-13T04:58:34;100158.20;;;21.40
68588;BMP180;55560;52.174;20.996;2023-07-13T05:01:04;100154.60;;;21.40
68588;BMP180;55560;52.174;20.996;2023-07-13T05:03:34;100151.20;;;21.50
68588;BMP180;55560;52.174;20.996;2023-07-13T05:06:06;100159.80;;;21.50
68588;BMP180;55560;52.174;20.996;2023-07-13T05:08:34;100166.80;;;21.60
68588;BMP180;55560;52.174;20.996;2023-07-13T05:11:05;100170.20;;;21.60
68588;BMP180;55560;52.174;20.996;2023-07-13T05:13:33;100179.40;;;21.70
68588;BMP180;55560;52.174;20.996;2023-07-13T05:16:04;100175.20;;;21.80
68588;BMP180;55560;52.174;20.996;2023-07-13T05:18:34;100178.20;;;21.80
68588;BMP180;55560;52.174;20.996;2023-07-13T05:21:06;100180.60;;;21.82
68588;BMP180;55560;52.174;20.996;2023-07-13T05:23:35;100187.80;;;21.90
68588;BMP180;55560;52.174;20.996;2023-07-13T05:26:04;100192.60;;;21.90
68588;BMP180;55560;52.174;20.996;2023-07-13T05:28:37;100194.00;;;22.00
68588;BMP180;55560;52.174;20.996;2023-07-13T05:31:09;100196.60;;;22.00
68588;BMP180;55560;52.174;20.996;2023-07-13T05:33:37;100206.80;;;22.10
68588;BMP180;55560;52.174;20.996;2023-07-13T05:36:06;100210.20;;;22.20
68588;BMP180;55560;52.174;20.996;2023-07-13T05:38:34;100213.20;;;22.20
68588;BMP180;55560;52.174;20.996;2023-07-13T05:41:03;100210.40;;;22.30
68588;BMP180;55560;52.174;20.996;2023-07-13T05:43:33;100211.00;;;22.40
68588;BMP180;55560;52.174;20.996;2023-07-13T05:46:02;100210.20;;;22.50
68588;BMP180;55560;52.174;20.996;2023-07-13T05:48:30;100207.00;;;22.60
68588;BMP180;55560;52.174;20.996;2023-07-13T05:50:58;100213.80;;;22.82
68588;BMP180;55560;52.174;20.996;2023-07-13T05:53:27;100213.20;;;23.00
68588;BMP180;55560;52.174;20.996;2023-07-13T05:55:55;100211.20;;;23.10
68588;BMP180;55560;52.174;20.996;2023-07-13T05:58:26;100214.00;;;23.30
68588;BMP180;55560;52.174;20.996;2023-07-13T06:01:09;100211.00;;;23.52
68588;BMP180;55560;52.174;20.996;2023-07-13T06:03:38;100212.20;;;23.70
68588;BMP180;55560;52.174;20.996;2023-07-13T06:06:08;100210.20;;;23.74
68588;BMP180;55560;52.174;20.996;2023-07-13T06:08:37;100198.60;;;23.80
68588;BMP180;55560;52.174;20.996;2023-07-13T06:11:14;100193.80;;;23.80
68588;BMP180;55560;52.174;20.996;2023-07-13T06:13:43;100191.00;;;23.90
68588;BMP180;55560;52.174;20.996;2023-07-13T06:16:12;100193.20;;;23.90
68588;BMP180;55560;52.174;20.996;2023-07-13T06:18:41;100193.00;;;24.00
68588;BMP180;55560;52.174;20.996;2023-07-13T06:21:14;100205.00;;;23.90
68588;BMP180;55560;52.174;20.996;2023-07-13T06:23:44;100207.20;;;23.90
68588;BMP180;55560;52.174;20.996;2023-07-13T06:26:13;100208.80;;;23.90
68588;BMP180;55560;52.174;20.996;2023-07-13T06:28:41;100201.40;;;23.90
68588;BMP180;55560;52.174;20.996;2023-07-13T06:31:11;100198.20;;;24.00
68588;BMP180;55560;52.174;20.996;2023-07-13T06:33:40;100188.80;;;24.08
68588;BMP180;55560;52.174;20.996;2023-07-13T06:36:09;100187.40;;;24.02
68588;BMP180;55560;52.174;20.996;2023-07-13T06:38:38;100190.80;;;24.10
68588;BMP180;55560;52.174;20.996;2023-07-13T06:41:07;100194.20;;;24.10
68588;BMP180;55560;52.174;20.996;2023-07-13T06:43:36;100194.60;;;24.10
68588;BMP180;55560;52.174;20.996;2023-07-13T06:46:04;100189.60;;;24.20
68588;BMP180;55560;52.174;20.996;2023-07-13T06:48:32;100186.20;;;24.20
68588;BMP180;55560;52.174;20.996;2023-07-13T06:51:02;100186.20;;;24.28
68588;BMP180;55560;52.174;20.996;2023-07-13T06:53:30;100186.20;;;24.30
68588;BMP180;55560;52.174;20.996;2023-07-13T06:55:58;100187.40;;;24.28
68588;BMP180;55560;52.174;20.996;2023-07-13T06:58:26;100185.80;;;24.30
68588;BMP180;55560;52.174;20.996;2023-07-13T07:00:54;100186.80;;;24.30
68588;BMP180;55560;52.174;20.996;2023-07-13T07:03:22;100191.20;;;24.34
68588;BMP180;55560;52.174;20.996;2023-07-13T07:05:50;100188.60;;;24.40
68588;BMP180;55560;52.174;20.996;2023-07-13T07:08:18;100191.00;;;24.50
68588;BMP180;55560;52.174;20.996;2023-07-13T07:10:46;100186.20;;;24.50
68588;BMP180;55560;52.174;20.996;2023-07-13T07:13:14;100185.20;;;24.64
68588;BMP180;55560;52.174;20.996;2023-07-13T07:15:42;100182.20;;;24.70
68588;BMP180;55560;52.174;20.996;2023-07-13T07:18:10;100178.20;;;24.70
68588;BMP180;55560;52.174;20.996;2023-07-13T07:20:41;100178.40;;;24.80
68588;BMP180;55560;52.174;20.996;2023-07-13T07:23:08;100189.60;;;24.90
68588;BMP180;55560;52.174;20.996;2023-07-13T07:25:36;100192.00;;;24.90
68588;BMP180;55560;52.174;20.996;2023-07-13T07:28:09;100198.00;;;25.00
68588;BMP180;55560;52.174;20.996;2023-07-13T07:30:42;100199.60;;;25.02
68588;BMP180;55560;52.174;20.996;2023-07-13T07:33:14;100209.40;;;25.10
68588;BMP180;55560;52.174;20.996;2023-07-13T07:35:43;100212.00;;;25.20
68588;BMP180;55560;52.174;20.996;2023-07-13T07:38:31;100206.00;;;25.20
68588;BMP180;55560;52.174;20.996;2023-07-13T07:41:03;100207.40;;;25.30
68588;BMP180;55560;52.174;20.996;2023-07-13T07:43:35;100196.60;;;25.30
68588;BMP180;55560;52.174;20.996;2023-07-13T07:46:03;100196.00;;;25.40
68588;BMP180;55560;52.174;20.996;2023-07-13T07:48:32;100194.60;;;25.44
68588;BMP180;55560;52.174;20.996;2023-07-13T07:51:01;100197.00;;;25.50
68588;BMP180;55560;52.174;20.996;2023-07-13T07:53:30;100200.40;;;25.60
68588;BMP180;55560;52.174;20.996;2023-07-13T07:56:01;100207.00;;;25.60
68588;BMP180;55560;52.174;20.996;2023-07-13T07:58:48;100206.60;;;25.70
68588;BMP180;55560;52.174;20.996;2023-07-13T08:01:19;100209.80;;;25.70
68588;BMP180;55560;52.174;20.996;2023-07-13T08:03:50;100207.00;;;25.70
68588;BMP180;55560;52.174;20.996;2023-07-13T08:06:21;100209.40;;;25.80
68588;BMP180;55560;52.174;20.996;2023-07-13T08:08:52;100207.40;;;25.84
68588;BMP180;55560;52.174;20.996;2023-07-13T08:11:21;100212.40;;;25.90
68588;BMP180;55560;52.174;20.996;2023-07-13T08:13:52;100204.20;;;25.90
68588;BMP180;55560;52.174;20.996;2023-07-13T08:16:23;100198.40;;;25.92
68588;BMP180;55560;52.174;20.996;2023-07-13T08:18:51;100198.80;;;26.00
68588;BMP180;55560;52.174;20.996;2023-07-13T08:21:19;100200.00;;;26.00
68588;BMP180;55560;52.174;20.996;2023-07-13T08:23:48;100195.00;;;26.10
68588;BMP180;55560;52.174;20.996;2023-07-13T08:26:16;100201.80;;;26.20
68588;BMP180;55560;52.174;20.996;2023-07-13T08:28:44;100203.80;;;26.20
68588;BMP180;55560;52.174;20.996;2023-07-13T08:31:12;100204.80;;;26.28
68588;BMP180;55560;52.174;20.996;2023-07-13T08:33:40;100205.40;;;26.30
68588;BMP180;55560;52.174;20.996;2023-07-13T08:36:08;100199.60;;;26.40
68588;BMP180;55560;52.174;20.996;2023-07-13T08:38:36;100200.80;;;26.50
68588;BMP180;55560;52.174;20.996;2023-07-13T08:41:16;100197.80;;;26.60
68588;BMP180;55560;52.174;20.996;2023-07-13T08:43:58;100201.00;;;26.60
68588;BMP180;55560;52.174;20.996;2023-07-13T08:46:36;100199.40;;;26.70
68588;BMP180;55560;52.174;20.996;2023-07-13T08:49:15;100200.00;;;26.78
68588;BMP180;55560;52.174;20.996;2023-07-13T08:51:59;100208.60;;;26.90
68588;BMP180;55560;52.174;20.996;2023-07-13T08:54:37;100208.80;;;27.00
68588;BMP180;55560;52.174;20.996;2023-07-13T08:57:20;100211.20;;;27.10
68588;BMP180;55560;52.174;20.996;2023-07-13T08:59:49;100212.60;;;27.20
68588;BMP180;55560;52.174;20.996;2023-07-13T09:05:38;100226.60;;;27.40
68588;BMP180;55560;52.174;20.996;2023-07-13T09:08:26;100225.40;;;27.50
68588;BMP180;55560;52.174;20.996;2023-07-13T09:14:13;100222.60;;;27.70
68588;BMP180;55560;52.174;20.996;2023-07-13T09:16:48;100217.00;;;27.80
68588;BMP180;55560;52.174;20.996;2023-07-13T09:19:25;100215.60;;;27.90
68588;BMP180;55560;52.174;20.996;2023-07-13T09:21:55;100213.40;;;27.90
68588;BMP180;55560;52.174;20.996;2023-07-13T09:24:38;100210.60;;;28.00
68588;BMP180;55560;52.174;20.996;2023-07-13T09:27:21;100207.20;;;27.98
68588;BMP180;55560;52.174;20.996;2023-07-13T09:32:47;100208.40;;;28.00
68588;BMP180;55560;52.174;20.996;2023-07-13T09:35:24;100204.40;;;28.10
68588;BMP180;55560;52.174;20.996;2023-07-13T09:38:14;100200.40;;;28.16
68588;BMP180;55560;52.174;20.996;2023-07-13T09:41:28;100194.60;;;28.12
68588;BMP180;55560;52.174;20.996;2023-07-13T09:43:37;100193.20;;;28.18
68588;BMP180;55560;52.174;20.996;2023-07-13T09:46:20;100187.20;;;28.20
68588;BMP180;55560;52.174;20.996;2023-07-13T09:48:50;100179.60;;;28.20
68588;BMP180;55560;52.174;20.996;2023-07-13T09:51:21;100175.60;;;28.40
68588;BMP180;55560;52.174;20.996;2023-07-13T09:53:49;100178.00;;;28.50
68588;BMP180;55560;52.174;20.996;2023-07-13T09:56:21;100174.60;;;28.60
68588;BMP180;55560;52.174;20.996;2023-07-13T09:58:50;100180.00;;;28.60
68588;BMP180;55560;52.174;20.996;2023-07-13T10:01:37;100178.00;;;28.50
68588;BMP180;55560;52.174;20.996;2023-07-13T10:04:14;100171.60;;;28.28
68588;BMP180;55560;52.174;20.996;2023-07-13T10:06:45;100161.60;;;27.90
68588;BMP180;55560;52.174;20.996;2023-07-13T10:09:16;100165.60;;;27.54
68588;BMP180;55560;52.174;20.996;2023-07-13T10:11:45;100174.00;;;27.30
68588;BMP180;55560;52.174;20.996;2023-07-13T10:14:18;100163.20;;;27.00
68588;BMP180;55560;52.174;20.996;2023-07-13T10:16:53;100158.60;;;26.72
68588;BMP180;55560;52.174;20.996;2023-07-13T10:19:27;100164.00;;;26.50
68588;BMP180;55560;52.174;20.996;2023-07-13T10:22:01;100155.80;;;26.40
68588;BMP180;55560;52.174;20.996;2023-07-13T10:24:34;100161.80;;;26.20
68588;BMP180;55560;52.174;20.996;2023-07-13T10:27:21;100162.80;;;25.90
68588;BMP180;55560;52.174;20.996;2023-07-13T10:30:19;100160.00;;;25.70
68588;BMP180;55560;52.174;20.996;2023-07-13T10:32:49;100147.00;;;25.50
68588;BMP180;55560;52.174;20.996;2023-07-13T10:35:20;100148.00;;;25.30
68588;BMP180;55560;52.174;20.996;2023-07-13T10:38:15;100148.80;;;25.10
68588;BMP180;55560;52.174;20.996;2023-07-13T10:41:15;100153.20;;;24.90
68588;BMP180;55560;52.174;20.996;2023-07-13T10:43:52;100153.40;;;24.70
68588;BMP180;55560;52.174;20.996;2023-07-13T10:46:24;100145.00;;;24.60
68588;BMP180;55560;52.174;20.996;2023-07-13T10:49:05;100147.60;;;24.50
68588;BMP180;55560;52.174;20.996;2023-07-13T10:51:35;100144.80;;;24.40
68588;BMP180;55560;52.174;20.996;2023-07-13T10:57:08;100169.20;;;24.20
68588;BMP180;55560;52.174;20.996;2023-07-13T11:00:15;100197.00;;;24.10
68588;BMP180;55560;52.174;20.996;2023-07-13T11:02:59;100231.00;;;24.00
68588;BMP180;55560;52.174;20.996;2023-07-13T11:05:33;100268.00;;;23.72
68588;BMP180;55560;52.174;20.996;2023-07-13T11:08:19;100295.60;;;23.30
68588;BMP180;55560;52.174;20.996;2023-07-13T11:10:55;100321.60;;;22.86
68588;BMP180;55560;52.174;20.996;2023-07-13T11:16:54;100289.40;;;22.26
68588;BMP180;55560;52.174;20.996;2023-07-13T11:25:00;100280.40;;;21.90
68588;BMP180;55560;52.174;20.996;2023-07-13T11:27:45;100276.60;;;21.68
68588;BMP180;55560;52.174;20.996;2023-07-13T11:33:15;100273.00;;;21.40
68588;BMP180;55560;52.174;20.996;2023-07-13T11:36:06;100278.20;;;21.28
68588;BMP180;55560;52.174;20.996;2023-07-13T11:38:42;100283.00;;;21.12
68588;BMP180;55560;52.174;20.996;2023-07-13T11:41:26;100280.80;;;21.10
68588;BMP180;55560;52.174;20.996;2023-07-13T11:44:16;100283.20;;;21.00
68588;BMP180;55560;52.174;20.996;2023-07-13T11:46:48;100289.40;;;21.00
68588;BMP180;55560;52.174;20.996;2023-07-13T11:49:23;100288.00;;;21.00
68588;BMP180;55560;52.174;20.996;2023-07-13T11:51:52;100295.20;;;21.00
68588;BMP180;55560;52.174;20.996;2023-07-13T11:54:30;100296.00;;;21.00
68588;BMP180;55560;52.174;20.996;2023-07-13T11:57:45;100306.80;;;21.00
68588;BMP180;55560;52.174;20.996;2023-07-13T12:00:12;100313.40;;;21.00
68588;BMP180;55560;52.174;20.996;2023-07-13T12:02:46;100320.40;;;20.96
68588;BMP180;55560;52.174;20.996;2023-07-13T12:05:17;100319.60;;;20.90
68588;BMP180;55560;52.174;20.996;2023-07-13T12:07:46;100315.80;;;20.90
68588;BMP180;55560;52.174;20.996;2023-07-13T12:10:22;100314.20;;;20.90
68588;BMP180;55560;52.174;20.996;2023-07-13T12:13:01;100313.20;;;20.90
68588;BMP180;55560;52.174;20.996;2023-07-13T12:15:37;100320.20;;;20.98
68588;BMP180;55560;52.174;20.996;2023-07-13T12:18:19;100325.20;;;21.00
68588;BMP180;55560;52.174;20.996;2023-07-13T12:20:49;100327.20;;;21.00
68588;BMP180;55560;52.174;20.996;2023-07-13T12:23:29;100318.60;;;20.90
68588;BMP180;55560;52.174;20.996;2023-07-13T12:25:59;100312.60;;;20.90
68588;BMP180;55560;52.174;20.996;2023-07-13T12:28:46;100311.80;;;20.80
68588;BMP180;55560;52.174;20.996;2023-07-13T12:31:36;100310.00;;;20.80
68588;BMP180;55560;52.174;20.996;2023-07-13T12:36:47;100291.20;;;20.80
68588;BMP180;55560;52.174;20.996;2023-07-13T12:41:51;100277.40;;;20.88
68588;BMP180;55560;52.174;20.996;2023-07-13T12:44:31;100269.60;;;20.90
68588;BMP180;55560;52.174;20.996;2023-07-13T12:47:06;100271.20;;;20.90
68588;BMP180;55560;52.174;20.996;2023-07-13T12:49:55;100271.40;;;20.90
68588;BMP180;55560;52.174;20.996;2023-07-13T12:52:33;100277.80;;;20.90
68588;BMP180;55560;52.174;20.996;2023-07-13T12:55:12;100279.80;;;20.80
68588;BMP180;55560;52.174;20.996;2023-07-13T12:58:04;100278.60;;;20.80
68588;BMP180;55560;52.174;20.996;2023-07-13T13:00:36;100273.40;;;20.70
68588;BMP180;55560;52.174;20.996;2023-07-13T13:06:06;100268.40;;;20.70
68588;BMP180;55560;52.174;20.996;2023-07-13T13:08:35;100273.60;;;20.70
68588;BMP180;55560;52.174;20.996;2023-07-13T13:11:04;100262.40;;;20.70
68588;BMP180;55560;52.174;20.996;2023-07-13T13:13:32;100267.20;;;20.80
68588;BMP180;55560;52.174;20.996;2023-07-13T13:16:32;100268.20;;;20.90
68588;BMP180;55560;52.174;20.996;2023-07-13T13:19:20;100273.40;;;21.00
68588;BMP180;55560;52.174;20.996;2023-07-13T13:21:55;100271.20;;;21.04
68588;BMP180;55560;52.174;20.996;2023-07-13T13:24:27;100277.00;;;21.08
68588;BMP180;55560;52.174;20.996;2023-07-13T13:26:56;100284.40;;;21.10
68588;BMP180;55560;52.174;20.996;2023-07-13T13:29:28;100291.80;;;21.16
68588;BMP180;55560;52.174;20.996;2023-07-13T13:31:56;100292.80;;;21.20
68588;BMP180;55560;52.174;20.996;2023-07-13T13:34:25;100292.60;;;21.30
68588;BMP180;55560;52.174;20.996;2023-07-13T13:36:54;100298.60;;;21.30
68588;BMP180;55560;52.174;20.996;2023-07-13T13:39:34;100294.60;;;21.30
68588;BMP180;55560;52.174;20.996;2023-07-13T13:42:03;100300.40;;;21.30
68588;BMP180;55560;52.174;20.996;2023-07-13T13:44:32;100303.60;;;21.30
68588;BMP180;55560;52.174;20.996;2023-07-13T13:47:00;100308.20;;;21.32
68588;BMP180;55560;52.174;20.996;2023-07-13T13:49:30;100310.60;;;21.40
68588;BMP180;55560;52.174;20.996;2023-07-13T13:51:58;100308.00;;;21.40
68588;BMP180;55560;52.174;20.996;2023-07-13T13:54:27;100304.00;;;21.40
68588;BMP180;55560;52.174;20.996;2023-07-13T13:56:55;100307.20;;;21.42
68588;BMP180;55560;52.174;20.996;2023-07-13T13:59:23;100308.40;;;21.42
68588;BMP180;55560;52.174;20.996;2023-07-13T14:01:51;100311.80;;;21.40
68588;BMP180;55560;52.174;20.996;2023-07-13T14:04:22;100314.60;;;21.50
68588;BMP180;55560;52.174;20.996;2023-07-13T14:06:50;100311.00;;;21.50
68588;BMP180;55560;52.174;20.996;2023-07-13T14:09:19;100314.80;;;21.50
68588;BMP180;55560;52.174;20.996;2023-07-13T14:11:50;100310.60;;;21.50
68588;BMP180;55560;52.174;20.996;2023-07-13T14:14:22;100309.00;;;21.50
68588;BMP180;55560;52.174;20.996;2023-07-13T14:16:52;100306.00;;;21.54
68588;BMP180;55560;52.174;20.996;2023-07-13T14:19:23;100307.20;;;21.60
68588;BMP180;55560;52.174;20.996;2023-07-13T14:21:51;100307.20;;;21.60
68588;BMP180;55560;52.174;20.996;2023-07-13T14:24:22;100299.00;;;21.60
68588;BMP180;55560;52.174;20.996;2023-07-13T14:26:49;100298.60;;;21.60
68588;BMP180;55560;52.174;20.996;2023-07-13T14:29:19;100301.20;;;21.60
68588;BMP180;55560;52.174;20.996;2023-07-13T14:31:51;100300.20;;;21.60
68588;BMP180;55560;52.174;20.996;2023-07-13T14:34:20;100307.40;;;21.70
68588;BMP180;55560;52.174;20.996;2023-07-13T14:36:48;100312.40;;;21.70
68588;BMP180;55560;52.174;20.996;2023-07-13T14:39:22;100310.40;;;21.80
68588;BMP180;55560;52.174;20.996;2023-07-13T14:41:53;100313.00;;;21.78
68588;BMP180;55560;52.174;20.996;2023-07-13T14:44:27;100314.00;;;21.72